Terminal Aerodrome Forecast
Issued by NWS

Home | Current Version | Previous Version | Text Only | Print | Product List | Glossary Off
Versions: 1 2 3 4 5 6 7 8 9 10 11 12 13 14 15 16 17 18 19 20 21 22 23 24 25 26 27 28 29 30 31 32

000
FTUS43 KPAH 200213 AAA
TAFOWB
TAF AMD
KOWB 200213Z 2002/2024 VRB03KT 3SM BR SCT005
     FM200600 VRB03KT 2SM BR BKN005
     FM200800 VRB03KT 3/4SM BR BKN003
     FM201500 14006KT P6SM BKN010
     FM201700 16007KT P6SM SCT250=

USA.gov is the U.S. government's official web portal to all federal, state and local government web resources and services.